createdAt,value
2018-07-22T00:00:32.464Z,19.90
2018-07-22T00:03:03.332Z,19.90
2018-07-22T00:05:34.222Z,19.90
2018-07-22T00:08:06.089Z,19.90
2018-07-22T00:10:37.268Z,19.90
2018-07-22T00:13:07.867Z,19.70
2018-07-22T00:18:08.698Z,19.80
2018-07-22T00:20:40.121Z,19.90
2018-07-22T00:23:10.693Z,19.90
2018-07-22T00:28:12.709Z,19.90
2018-07-22T00:33:13.346Z,19.80
2018-07-22T00:35:44.057Z,19.70
2018-07-22T00:38:14.703Z,19.70
2018-07-22T00:40:45.301Z,19.60
2018-07-22T00:43:15.887Z,19.70
2018-07-22T00:45:46.948Z,19.70
2018-07-22T00:48:18.179Z,19.60
2018-07-22T00:50:48.619Z,19.50
2018-07-22T00:53:19.272Z,19.50
2018-07-22T00:55:49.768Z,19.40
2018-07-22T00:58:20.414Z,19.30
2018-07-22T01:00:50.973Z,19.30
2018-07-22T01:03:21.627Z,19.30
2018-07-22T01:05:52.839Z,19.20
2018-07-22T01:08:23.923Z,19.20
2018-07-22T01:10:54.342Z,19.20
2018-07-22T01:13:24.956Z,19.30
2018-07-22T01:15:55.697Z,19.30
2018-07-22T01:18:26.537Z,19.30
2018-07-22T01:20:57.330Z,19.40
2018-07-22T01:23:28.133Z,19.50
2018-07-22T01:25:59.728Z,19.60
2018-07-22T01:28:30.522Z,19.70
2018-07-22T01:31:01.409Z,19.70
2018-07-22T01:33:31.937Z,19.70
2018-07-22T01:36:02.342Z,19.70
2018-07-22T01:41:03.331Z,19.70
2018-07-22T01:43:34.284Z,19.50
2018-07-22T01:46:06.073Z,19.20
2018-07-22T01:51:06.735Z,18.90
2018-07-22T01:53:37.364Z,18.90
2018-07-22T01:56:08.007Z,18.90
2018-07-22T01:58:38.611Z,18.90
2018-07-22T02:01:09.184Z,18.90
2018-07-22T02:03:40.172Z,19.00
2018-07-22T02:06:11.219Z,19.10
2018-07-22T02:08:41.790Z,19.10
2018-07-22T02:11:12.395Z,19.00
2018-07-22T02:13:45.725Z,18.90
2018-07-22T02:16:16.158Z,19.00
2018-07-22T02:18:46.562Z,19.00
2018-07-22T02:21:17.886Z,19.10
2018-07-22T02:23:49.105Z,19.20
2018-07-22T02:26:20.185Z,19.30
2018-07-22T02:28:50.694Z,19.10
2018-07-22T02:31:21.313Z,18.90
2018-07-22T02:33:51.766Z,18.70
2018-07-22T02:36:22.321Z,18.60
2018-07-22T02:38:52.993Z,18.40
2018-07-22T02:41:24.205Z,18.30
2018-07-22T02:43:55.134Z,18.30
2018-07-22T02:46:25.941Z,18.30
2018-07-22T02:48:56.375Z,18.30
2018-07-22T02:51:26.815Z,18.30
2018-07-22T02:53:57.358Z,18.40
2018-07-22T02:56:27.990Z,18.40
2018-07-22T03:01:30.232Z,18.30
2018-07-22T03:06:32.459Z,18.30
2018-07-22T03:09:03.299Z,18.30
2018-07-22T03:11:33.774Z,18.30
2018-07-22T03:14:04.206Z,18.30
2018-07-22T03:16:34.744Z,18.30
2018-07-22T03:21:37.075Z,18.30
2018-07-22T03:24:07.846Z,18.40
2018-07-22T03:26:38.457Z,18.40
2018-07-22T03:29:09.099Z,18.40
2018-07-22T03:31:39.616Z,18.50
2018-07-22T03:34:11.078Z,18.50
2018-07-22T03:36:41.814Z,18.50
2018-07-22T03:41:43.821Z,18.50
2018-07-22T03:44:14.291Z,18.50
2018-07-22T03:46:44.939Z,18.40
2018-07-22T03:49:15.331Z,18.40
2018-07-22T03:51:45.914Z,18.50
2018-07-22T03:54:17.231Z,18.40
2018-07-22T03:56:48.174Z,18.40
2018-07-22T03:59:19.539Z,18.40
2018-07-22T04:01:50.187Z,18.40
2018-07-22T04:04:21.268Z,18.40
2018-07-22T04:06:52.138Z,18.40
2018-07-22T04:09:23.312Z,18.40
2018-07-22T04:11:53.983Z,18.40
2018-07-22T04:14:24.645Z,18.40
2018-07-22T04:16:56.687Z,18.40
2018-07-22T04:19:27.482Z,18.40
2018-07-22T04:21:58.180Z,18.40
2018-07-22T04:24:28.609Z,18.40
2018-07-22T04:26:59.279Z,18.40
2018-07-22T04:29:29.748Z,18.30
2018-07-22T04:32:00.293Z,18.40
2018-07-22T04:34:31.548Z,18.40
2018-07-22T04:37:03.217Z,18.40
2018-07-22T04:39:33.863Z,18.40
2018-07-22T04:42:04.533Z,18.50
2018-07-22T04:44:35.176Z,18.60
2018-07-22T04:47:05.734Z,18.60
2018-07-22T04:49:36.336Z,18.50
2018-07-22T04:52:06.920Z,18.40
2018-07-22T04:54:38.599Z,18.40
2018-07-22T04:57:09.409Z,18.40
2018-07-22T04:59:40.072Z,18.50
2018-07-22T05:02:10.715Z,18.60
2018-07-22T05:04:41.260Z,18.70
2018-07-22T05:07:11.859Z,18.90
2018-07-22T05:09:42.307Z,19.00
2018-07-22T05:12:12.933Z,19.20
2018-07-22T05:14:44.370Z,19.40
2018-07-22T05:17:15.549Z,19.50
2018-07-22T05:19:46.111Z,19.70
2018-07-22T05:22:16.709Z,19.70
2018-07-22T05:24:47.176Z,19.70
2018-07-22T05:29:48.309Z,19.70
2018-07-22T05:32:19.418Z,19.80
2018-07-22T05:34:50.944Z,20.00
2018-07-22T05:37:21.541Z,20.30
2018-07-22T05:42:22.181Z,20.70
2018-07-22T05:44:53.079Z,20.90
2018-07-22T05:47:23.632Z,21.10
2018-07-22T05:49:54.279Z,21.10
2018-07-22T05:52:25.538Z,21.30
2018-07-22T05:54:57.484Z,21.50
2018-07-22T05:57:27.980Z,21.50
2018-07-22T05:59:58.437Z,21.50
2018-07-22T06:02:29.239Z,21.70
2018-07-22T06:04:59.897Z,21.80
2018-07-22T06:07:38.734Z,22.00
2018-07-22T06:10:10.092Z,22.20
2018-07-22T06:12:40.704Z,22.40
2018-07-22T06:15:11.426Z,22.70
2018-07-22T06:17:42.249Z,23.00
2018-07-22T06:20:12.830Z,23.30
2018-07-22T06:22:44.499Z,23.50
2018-07-22T06:25:15.571Z,23.90
2018-07-22T06:27:46.082Z,24.30
2018-07-22T06:30:16.740Z,24.80
2018-07-22T06:32:47.541Z,25.00
2018-07-22T06:37:48.293Z,25.90
2018-07-22T06:40:18.981Z,26.30
2018-07-22T06:42:50.296Z,26.70
2018-07-22T06:45:23.012Z,27.00
2018-07-22T06:47:54.107Z,27.20
2018-07-22T06:50:24.855Z,27.50
2018-07-22T06:52:55.501Z,27.80
2018-07-22T06:55:26.992Z,28.00
2018-07-22T07:00:34.959Z,28.40
2018-07-22T07:03:06.625Z,28.30
2018-07-22T07:05:37.261Z,28.20
2018-07-22T07:10:38.603Z,29.00
2018-07-22T07:13:09.318Z,28.80
2018-07-22T07:18:11.180Z,29.00
2018-07-22T07:20:42.255Z,29.40
2018-07-22T07:23:13.620Z,29.40
2018-07-22T07:25:45.450Z,29.00
2018-07-22T07:28:16.166Z,29.00
2018-07-22T07:30:47.763Z,29.00
2018-07-22T07:33:18.462Z,29.50
2018-07-22T07:35:50.232Z,29.10
2018-07-22T07:38:21.187Z,29.30
2018-07-22T07:40:52.132Z,30.20
2018-07-22T07:43:23.172Z,30.60
2018-07-22T07:45:53.875Z,30.60
2018-07-22T07:48:24.663Z,31.40
2018-07-22T07:50:55.304Z,31.60
2018-07-22T07:53:26.808Z,31.80
2018-07-22T07:55:58.045Z,31.80
2018-07-22T07:58:28.872Z,31.80
2018-07-22T08:00:59.510Z,32.10
2018-07-22T08:03:30.291Z,32.10
2018-07-22T08:06:01.041Z,32.60
2018-07-22T08:08:31.987Z,32.90
2018-07-22T08:11:02.625Z,32.50
2018-07-22T08:13:34.044Z,33.00
2018-07-22T08:16:05.386Z,32.90
2018-07-22T08:18:36.919Z,32.90
2018-07-22T08:21:08.350Z,33.30
2018-07-22T08:23:41.664Z,33.20
2018-07-22T08:26:12.499Z,33.40
2018-07-22T08:29:24.247Z,32.90
2018-07-22T08:31:57.758Z,32.90
2018-07-22T08:34:28.691Z,33.00
2018-07-22T08:37:00.181Z,32.90
2018-07-22T08:39:32.345Z,33.50
2018-07-22T08:42:03.568Z,32.90
2018-07-22T08:44:35.042Z,32.70
2018-07-22T08:47:06.719Z,33.10
2018-07-22T08:49:38.414Z,33.30
2018-07-22T08:54:39.854Z,34.10
2018-07-22T08:57:10.420Z,34.00
2018-07-22T08:59:41.049Z,33.50
2018-07-22T09:02:11.904Z,32.70
2018-07-22T09:04:42.712Z,31.60
2018-07-22T09:07:14.182Z,31.00
2018-07-22T09:09:45.176Z,30.10
2018-07-22T09:12:15.784Z,30.50
2018-07-22T09:14:46.541Z,30.90
2018-07-22T09:17:16.947Z,31.40
2018-07-22T09:19:47.670Z,31.70
2018-07-22T09:22:18.389Z,31.60
2018-07-22T09:24:49.621Z,31.40
2018-07-22T09:27:21.247Z,32.40
2018-07-22T09:29:52.077Z,33.40
2018-07-22T09:32:22.735Z,34.20
2018-07-22T09:34:54.413Z,34.80
2018-07-22T09:37:25.053Z,35.40
2018-07-22T09:39:55.954Z,35.80
2018-07-22T09:42:27.042Z,36.10
2018-07-22T09:45:00.243Z,36.20
2018-07-22T09:47:32.704Z,35.70
2018-07-22T09:50:04.542Z,36.10
2018-07-22T09:52:35.107Z,36.10
2018-07-22T09:55:05.985Z,35.30
2018-07-22T09:57:36.956Z,34.30
2018-07-22T10:00:10.565Z,33.60
2018-07-22T10:02:43.098Z,33.00
2018-07-22T10:05:14.017Z,32.60
2018-07-22T10:07:45.732Z,32.90
2018-07-22T10:10:16.909Z,33.00
2018-07-22T10:12:48.176Z,32.90
2018-07-22T10:15:20.221Z,33.10
2018-07-22T10:17:52.549Z,32.90
2018-07-22T10:20:24.064Z,33.30
2018-07-22T10:22:54.857Z,34.10
2018-07-22T10:25:26.795Z,34.90
2018-07-22T10:27:57.817Z,35.30
2018-07-22T10:30:30.497Z,35.80
2018-07-22T10:33:01.676Z,35.40
2018-07-22T10:38:05.630Z,34.00
2018-07-22T10:40:37.939Z,33.60
2018-07-22T10:43:08.794Z,33.00
2018-07-22T10:45:39.529Z,32.40
2018-07-22T10:48:10.379Z,32.30
2018-07-22T10:50:41.298Z,32.10
2018-07-22T10:53:13.051Z,31.70
2018-07-22T10:58:14.742Z,33.10
2018-07-22T11:00:46.063Z,34.10
2018-07-22T11:03:16.827Z,35.10
2018-07-22T11:05:47.689Z,35.60
2018-07-22T11:08:19.014Z,36.10
2018-07-22T11:10:50.256Z,36.30
2018-07-22T11:13:21.718Z,36.70
2018-07-22T11:15:52.948Z,36.20
2018-07-22T11:18:30.720Z,35.90
2018-07-22T11:23:32.063Z,35.10
2018-07-22T11:26:03.534Z,35.30
2018-07-22T11:28:35.220Z,35.40
2018-07-22T11:31:06.072Z,35.40
2018-07-22T11:33:36.814Z,35.70
2018-07-22T11:36:07.514Z,35.50
2018-07-22T11:43:40.937Z,35.10
2018-07-22T11:46:12.422Z,34.90
2018-07-22T11:48:43.841Z,33.80
2018-07-22T11:53:45.595Z,34.20
2018-07-22T11:56:16.963Z,35.10
2018-07-22T11:58:48.456Z,35.10
2018-07-22T12:01:19.505Z,35.30
2018-07-22T12:03:51.492Z,35.50
2018-07-22T12:06:23.486Z,35.10
2018-07-22T12:08:55.045Z,34.70
2018-07-22T12:13:57.096Z,34.20
2018-07-22T12:18:59.514Z,33.50
2018-07-22T12:21:32.095Z,33.60
2018-07-22T12:24:04.233Z,33.20
2018-07-22T12:26:36.385Z,33.70
2018-07-22T12:29:08.222Z,33.70
2018-07-22T12:31:40.986Z,34.00
2018-07-22T12:34:13.853Z,34.20
2018-07-22T12:36:48.815Z,34.70
2018-07-22T12:39:21.708Z,33.60
2018-07-22T12:41:53.411Z,32.80
2018-07-22T12:46:56.315Z,33.70
2018-07-22T12:49:28.866Z,33.20
2018-07-22T12:52:01.547Z,33.10
2018-07-22T12:54:33.289Z,33.80
2018-07-22T12:57:05.960Z,33.40
2018-07-22T12:59:37.692Z,32.60
2018-07-22T13:02:09.685Z,32.70
2018-07-22T13:04:41.924Z,32.80
2018-07-22T13:07:15.924Z,32.70
2018-07-22T13:09:50.622Z,32.00
2018-07-22T13:12:23.001Z,32.90
2018-07-22T13:14:57.222Z,32.70
2018-07-22T13:17:29.966Z,33.60
2018-07-22T13:20:02.865Z,34.20
2018-07-22T13:22:34.566Z,34.50
2018-07-22T13:25:06.772Z,34.90
2018-07-22T13:27:38.891Z,35.20
2018-07-22T13:30:11.303Z,35.20
2018-07-22T13:32:45.466Z,34.70
2018-07-22T13:35:19.198Z,34.20
2018-07-22T13:37:51.068Z,33.50
2018-07-22T13:40:24.001Z,33.80
2018-07-22T13:42:57.694Z,34.40
2018-07-22T13:45:30.810Z,34.20
2018-07-22T13:48:02.819Z,33.60
2018-07-22T13:50:34.868Z,32.20
2018-07-22T13:53:07.276Z,33.10
2018-07-22T13:58:11.055Z,33.10
2018-07-22T14:00:43.094Z,32.90
2018-07-22T14:03:16.056Z,33.00
2018-07-22T14:05:48.084Z,33.70
2018-07-22T14:08:20.240Z,33.60
2018-07-22T14:10:52.518Z,34.40
2018-07-22T14:13:24.065Z,34.50
2018-07-22T14:15:55.957Z,34.70
2018-07-22T14:18:29.217Z,34.80
2018-07-22T14:21:01.289Z,34.90
2018-07-22T14:23:33.229Z,33.60
2018-07-22T14:26:05.613Z,33.30
2018-07-22T14:31:08.398Z,33.00
2018-07-22T14:33:41.784Z,33.60
2018-07-22T14:36:13.993Z,33.50
2018-07-22T14:38:47.042Z,32.50
2018-07-22T14:41:18.870Z,33.10
2018-07-22T14:43:50.461Z,33.00
2018-07-22T14:46:22.178Z,33.60
2018-07-22T14:48:55.077Z,34.00
2018-07-22T14:51:27.465Z,34.10
2018-07-22T14:53:59.150Z,34.40
2018-07-22T14:56:31.583Z,34.70
2018-07-22T14:59:03.464Z,34.30
2018-07-22T15:01:35.506Z,33.80
2018-07-22T15:04:08.020Z,33.30
2018-07-22T15:06:39.648Z,32.90
2018-07-22T15:09:11.333Z,33.10
2018-07-22T15:11:42.733Z,33.30
2018-07-22T15:14:14.224Z,33.40
2018-07-22T15:16:45.353Z,33.30
2018-07-22T15:19:16.832Z,33.20
2018-07-22T15:21:48.822Z,32.90
2018-07-22T15:24:20.183Z,32.70
2018-07-22T15:26:51.338Z,32.50
2018-07-22T15:29:22.881Z,32.30
2018-07-22T15:31:54.139Z,31.90
2018-07-22T15:36:57.839Z,31.80
2018-07-22T15:39:30.195Z,31.90
2018-07-22T15:42:01.835Z,31.90
2018-07-22T15:44:33.801Z,31.90
2018-07-22T15:47:05.531Z,32.10
2018-07-22T15:49:37.753Z,32.00
2018-07-22T15:52:10.426Z,31.90
2018-07-22T15:54:44.430Z,32.10
2018-07-22T15:57:18.267Z,32.30
2018-07-22T15:59:50.322Z,32.50
2018-07-22T16:02:22.116Z,32.50
2018-07-22T16:04:54.772Z,32.70
2018-07-22T16:07:27.933Z,32.70
2018-07-22T16:09:59.754Z,32.50
2018-07-22T16:12:31.615Z,32.40
2018-07-22T16:15:03.459Z,32.40
2018-07-22T16:17:35.202Z,32.30
2018-07-22T16:20:07.349Z,32.30
2018-07-22T16:22:40.888Z,32.20
2018-07-22T16:25:13.125Z,31.80
2018-07-22T16:27:44.762Z,31.60
2018-07-22T16:30:16.905Z,31.30
2018-07-22T16:32:48.685Z,31.30
2018-07-22T16:35:24.632Z,31.60
2018-07-22T16:37:57.255Z,31.70
2018-07-22T16:40:28.696Z,31.70
2018-07-22T16:43:00.240Z,31.70
2018-07-22T16:45:31.962Z,31.70
2018-07-22T16:48:03.631Z,31.60
2018-07-22T16:50:35.363Z,31.40
2018-07-22T16:55:43.726Z,31.40
2018-07-22T17:00:47.640Z,30.90
2018-07-22T17:03:19.619Z,30.90
2018-07-22T17:05:52.801Z,30.60
2018-07-22T17:08:25.711Z,30.60
2018-07-22T17:10:57.505Z,30.50
2018-07-22T17:13:31.027Z,30.50
2018-07-22T17:16:06.006Z,30.40
2018-07-22T17:18:37.557Z,30.30
2018-07-22T17:21:11.241Z,30.30
2018-07-22T17:23:43.194Z,30.20
2018-07-22T17:26:14.980Z,30.10
2018-07-22T17:28:46.902Z,29.90
2018-07-22T17:31:19.083Z,29.80
2018-07-22T17:33:50.801Z,29.60
2018-07-22T17:36:25.239Z,29.50
2018-07-22T17:38:57.653Z,29.40
2018-07-22T17:41:29.143Z,29.10
2018-07-22T17:44:00.843Z,29.00
2018-07-22T17:46:32.482Z,28.80
2018-07-22T17:49:04.243Z,28.70
2018-07-22T17:54:08.487Z,28.50
2018-07-22T17:56:40.269Z,28.40
2018-07-22T18:01:43.876Z,28.20
2018-07-22T18:04:15.849Z,28.10
2018-07-22T18:06:48.144Z,28.00
2018-07-22T18:09:21.937Z,27.90
2018-07-22T18:11:54.003Z,27.90
2018-07-22T18:14:26.676Z,27.80
2018-07-22T18:16:58.841Z,27.70
2018-07-22T18:19:30.601Z,27.60
2018-07-22T18:22:03.567Z,27.60
2018-07-22T18:24:35.450Z,27.60
2018-07-22T18:29:38.508Z,27.50
2018-07-22T18:32:11.490Z,27.30
2018-07-22T18:34:43.324Z,27.20
2018-07-22T18:37:17.566Z,27.10
2018-07-22T18:39:50.571Z,26.90
2018-07-22T18:42:23.337Z,26.80
2018-07-22T18:44:58.670Z,26.80
2018-07-22T18:47:31.696Z,26.80
2018-07-22T18:50:04.483Z,26.80
2018-07-22T18:52:37.178Z,26.70
2018-07-22T18:55:08.943Z,26.70
2018-07-22T18:57:40.943Z,26.60
2018-07-22T19:00:14.198Z,26.50
2018-07-22T19:02:46.448Z,26.50
2018-07-22T19:05:19.876Z,26.50
2018-07-22T19:07:51.514Z,26.50
2018-07-22T19:10:24.659Z,26.50
2018-07-22T19:12:57.173Z,26.50
2018-07-22T19:15:31.053Z,26.40
2018-07-22T19:18:04.041Z,26.40
2018-07-22T19:20:36.481Z,26.30
2018-07-22T19:23:10.138Z,26.30
2018-07-22T19:25:43.477Z,26.30
2018-07-22T19:28:15.768Z,26.20
2018-07-22T19:30:48.374Z,26.20
2018-07-22T19:33:22.245Z,26.20
2018-07-22T19:35:55.917Z,26.30
2018-07-22T19:38:28.649Z,26.30
2018-07-22T19:41:00.968Z,26.20
2018-07-22T19:43:33.251Z,26.30
2018-07-22T19:48:37.628Z,26.30
2018-07-22T19:51:10.202Z,26.30
2018-07-22T19:53:41.999Z,26.30
2018-07-22T19:56:13.862Z,26.20
2018-07-22T19:58:45.797Z,26.20
2018-07-22T20:01:19.819Z,26.20
2018-07-22T20:03:52.470Z,26.10
2018-07-22T20:06:24.998Z,26.10
2018-07-22T20:08:56.821Z,26.00
2018-07-22T20:11:29.506Z,26.00
2018-07-22T20:14:03.275Z,25.90
2018-07-22T20:16:37.534Z,25.90
2018-07-22T20:19:09.748Z,26.00
2018-07-22T20:21:42.455Z,25.90
2018-07-22T20:24:16.103Z,25.90
2018-07-22T20:26:48.937Z,25.80
2018-07-22T20:29:23.206Z,25.60
2018-07-22T20:31:55.448Z,25.30
2018-07-22T20:34:27.843Z,25.20
2018-07-22T20:36:59.639Z,25.10
2018-07-22T20:39:31.707Z,25.00
2018-07-22T20:42:04.790Z,24.90
2018-07-22T20:44:37.635Z,24.80
2018-07-22T20:47:09.541Z,24.80
2018-07-22T20:49:41.261Z,24.70
2018-07-22T20:52:13.030Z,24.70
2018-07-22T20:54:45.960Z,24.60
2018-07-22T20:57:19.124Z,24.60
2018-07-22T20:59:50.969Z,24.50
2018-07-22T21:04:53.661Z,24.40
2018-07-22T21:07:26.056Z,24.30
2018-07-22T21:09:57.663Z,24.20
2018-07-22T21:12:54.443Z,24.20
2018-07-22T21:15:26.039Z,24.10
2018-07-22T21:17:57.765Z,24.00
2018-07-22T21:20:29.253Z,24.00
2018-07-22T21:23:00.309Z,24.00
2018-07-22T21:25:31.517Z,24.00
2018-07-22T21:28:02.757Z,24.10
2018-07-22T21:30:34.178Z,24.10
2018-07-22T21:33:05.398Z,24.10
2018-07-22T21:35:40.191Z,24.10
2018-07-22T21:38:11.476Z,24.20
2018-07-22T21:40:47.646Z,24.20
2018-07-22T21:43:18.344Z,24.20
2018-07-22T21:45:51.808Z,24.20
2018-07-22T21:48:22.745Z,24.20
2018-07-22T21:50:54.451Z,24.10
2018-07-22T21:53:26.688Z,24.00
2018-07-22T21:55:57.301Z,23.90
2018-07-22T21:58:28.362Z,23.90
2018-07-22T22:00:59.122Z,23.80
2018-07-22T22:03:29.898Z,23.80
2018-07-22T22:06:00.664Z,23.80
2018-07-22T22:08:31.591Z,23.80
2018-07-22T22:11:03.072Z,23.80
2018-07-22T22:13:34.395Z,23.90
2018-07-22T22:16:05.112Z,24.00
2018-07-22T22:18:35.756Z,24.00
2018-07-22T22:21:07.008Z,24.00
2018-07-22T22:23:37.547Z,24.00
2018-07-22T22:26:08.231Z,24.00
2018-07-22T22:28:39.053Z,24.00
2018-07-22T22:31:10.495Z,23.90
2018-07-22T22:36:11.038Z,24.00
2018-07-22T22:38:41.553Z,24.00
2018-07-22T22:41:11.982Z,23.90
2018-07-22T22:43:42.658Z,23.80
2018-07-22T22:46:13.202Z,23.80
2018-07-22T22:48:44.003Z,23.70
2018-07-22T22:51:15.586Z,23.70
2018-07-22T22:53:46.140Z,23.70
2018-07-22T22:56:17.229Z,23.70
2018-07-22T22:59:04.763Z,23.70
2018-07-22T23:01:36.457Z,23.60
2018-07-22T23:04:07.098Z,23.60
2018-07-22T23:06:37.401Z,23.60
2018-07-22T23:11:42.651Z,23.60
2018-07-22T23:14:13.372Z,23.60
2018-07-22T23:16:44.382Z,23.50
2018-07-22T23:19:15.882Z,23.50
2018-07-22T23:21:46.183Z,23.40
2018-07-22T23:24:16.890Z,23.30
2018-07-22T23:26:47.452Z,23.30
2018-07-22T23:29:18.151Z,23.20
2018-07-22T23:31:48.815Z,23.20
2018-07-22T23:36:49.741Z,23.20
2018-07-22T23:39:21.491Z,23.10
2018-07-22T23:44:23.213Z,22.90
2018-07-22T23:49:23.745Z,22.80
2018-07-22T23:51:54.311Z,22.60
2018-07-22T23:54:24.953Z,22.50
2018-07-22T23:56:55.814Z,22.40
2018-07-22T23:59:27.161Z,22.20
